CST,Max TemperatureF,Mean TemperatureF,Min TemperatureF,Max Dew PointF,MeanDew PointF,Min DewpointF,Max Humidity, Mean Humidity, Min Humidity, Max Sea Level PressureIn, Mean Sea Level PressureIn, Min Sea Level PressureIn, Max VisibilityMiles, Mean VisibilityMiles, Min VisibilityMiles, Max Wind SpeedMPH, Mean Wind SpeedMPH, Max Gust SpeedMPH,PrecipitationIn, CloudCover, Events, WindDirDegrees
2012-11-1,41,33,25,38,26,20,92,76,59,30.17,30.12,30.05,,,,22,12,25,0.00,,,12
2012-11-2,35,31,26,28,25,22,88,79,69,30.20,30.16,30.12,,,,10,4,13,0.00,,,141
2012-11-3,41,37,32,35,32,28,100,87,73,30.25,30.21,30.19,,,,7,5,8,0.03,,,169
2012-11-4,39,36,33,37,35,33,100,93,85,30.24,30.21,30.16,,,,8,3,10,0.01,,,48
2012-11-5,42,38,34,36,34,32,100,87,73,30.25,30.11,29.81,,,,21,9,26,0.03,,,285
2012-11-6,46,38,30,39,33,28,92,75,58,30.08,29.94,29.80,,,,31,19,38,0.03,,,332
2012-11-7,50,38,26,34,30,25,92,69,46,30.14,30.02,29.83,,,,17,10,21,0.00,,,202
2012-11-8,50,41,31,38,33,29,92,81,70,30.11,29.97,29.81,,,,26,13,32,0.00,,,39
2012-11-9,43,38,33,37,34,31,89,83,76,30.10,30.01,29.84,,,,20,14,26,0.00,,,80
2012-11-10,45,37,29,45,39,26,100,93,86,29.81,29.60,29.48,,,,31,11,38,0.14,,,56
2012-11-11,29,24,18,23,14,10,85,76,67,29.99,29.89,29.69,,,,30,19,36,0.00,,,305
2012-11-12,27,20,13,15,12,6,92,74,55,30.30,30.17,29.98,,,,26,15,36,0.01,,,307
2012-11-13,44,31,17,28,22,14,84,65,46,30.30,30.27,30.23,,,,12,4,13,0.00,,,213
2012-11-14,50,37,24,34,29,22,92,72,52,30.25,30.17,30.07,,,,17,6,23,0.00,,,206
2012-11-15,42,30,17,32,22,14,85,65,44,30.55,30.37,30.07,,,,20,11,24,0.00,,,335
2012-11-16,48,32,15,31,19,13,92,60,28,30.53,30.34,30.10,,,,24,13,31,0.00,,,173
2012-11-17,55,44,32,37,34,30,89,70,50,30.09,30.05,30.01,,,,31,11,39,0.00,,,197
2012-11-18,60,44,27,38,34,26,92,68,44,30.01,29.97,29.90,,,,18,9,24,0.00,,,172
2012-11-19,54,39,23,37,31,22,92,71,50,30.21,30.05,29.87,,,,21,9,25,0.01,,,339
2012-11-20,58,38,18,32,26,17,100,68,35,30.22,30.08,29.89,,,,17,9,21,0.00,,,183
2012-11-21,62,46,29,37,32,26,85,61,36,29.91,29.75,29.52,,,,26,9,35,0.00,,,190
2012-11-22,54,38,21,35,27,15,82,62,41,30.31,29.90,29.53,,,,38,23,46,0.00,,,333
2012-11-23,21,14,7,14,8,4,83,70,57,30.57,30.50,30.34,,,,33,16,39,0.01,,,337
2012-11-24,36,22,8,28,15,6,91,69,47,30.43,30.07,29.86,,,,22,11,28,0.00,,,208
2012-11-25,35,26,17,25,19,10,81,70,59,30.35,30.10,29.96,,,,25,14,31,0.00,,,356
2012-11-26,27,16,5,14,6,2,88,69,50,30.55,30.43,30.28,,,,25,11,35,0.00,,,308
2012-11-27,36,26,16,23,19,14,92,74,56,30.33,30.22,30.15,,,,25,11,33,0.00,,,304
2012-11-28,44,32,20,26,22,17,88,69,49,30.35,30.21,30.07,,,,18,7,21,0.00,,,211
2012-11-29,31,24,17,24,22,15,100,85,69,30.19,30.14,30.09,,,,16,9,20,0.00,,,30
2012-11-30,33,30,26,30,25,22,92,85,78,30.19,30.08,29.87,,,,23,12,29,0.00,,,159